Latest Weather Observations for Naracoorte

IDS60801

Issued at 3:01 pm CST Tuesday 26 May 2015 (issued every 30 minutes, with the page automatically refreshed every 10 minutes)

About weather observations | Map of weather stations | Latest weather observations for SA | Other Formats
Station Details ID: 026099 Name: NARACOORTE AERODROME Lat: -36.98 Lon: 140.73 Height: 49.72 m
Data from the previous 72 hours. | See also: Recent months at Naracoorte
Date/Time
CST
Temp
°C
App
Temp
°C
Dew
Point
Rel
Hum
%
Delta-T
°C
Wind Press
QNH
hPa
Press
MSL
hPa
Rain
since 9 am
mm
Dir
 
Spd
km/h
Gust
km/h
Spd
kts
Gust
kts
26/03:00pm 17.8 15.8 10.2 61 4.0 N 11 17 6 9 1021.9 1021.9 0.0
26/02:30pm 17.4 14.1 9.6 60 4.1 N 17 22 9 12 1022.2 1022.2 0.0
26/02:00pm 17.8 14.8 9.2 57 4.5 N 15 22 8 12 1022.6 1022.6 0.0
26/01:30pm 17.2 14.5 9.1 59 4.2 N 13 19 7 10 1023.2 1023.2 0.0
26/01:00pm 17.7 15.2 9.6 59 4.3 NNE 13 19 7 10 1023.7 1023.7 0.0
26/12:30pm 16.5 14.1 9.9 65 3.5 NE 13 19 7 10 1024.1 1024.1 0.0
26/12:00pm 16.8 14.7 9.7 63 3.7 NE 11 19 6 10 1024.9 1024.9 0.0
26/11:30am 15.6 13.2 8.8 64 3.5 NNE 11 17 6 9 1025.2 1025.2 0.0
26/11:00am 13.7 12.7 9.0 73 2.4 NE 4 9 2 5 1025.9 1025.9 0.0
26/10:30am 13.1 10.1 7.8 70 2.6 NNE 13 19 7 10 1026.3 1026.3 0.0
26/10:00am 12.4 8.7 8.1 75 2.1 NE 17 24 9 13 1026.7 1026.7 0.0
26/09:30am 11.3 8.7 7.6 78 1.8 NNE 11 17 6 9 1027.0 1027.0 0.0
26/09:00am 10.3 5.8 6.8 79 1.6 NE 20 28 11 15 1026.8 1026.8 0.0
26/08:30am 9.7 6.0 6.4 80 1.5 NE 15 20 8 11 1027.0 1027.0 0.0
26/08:00am 9.0 4.9 6.1 82 1.3 NE 17 20 9 11 1027.3 1027.3 0.0
26/07:30am 8.7 4.9 5.8 82 1.3 NE 15 20 8 11 1027.4 1027.4 0.0
26/07:00am 8.6 5.2 5.7 82 1.3 NE 13 19 7 10 1027.3 1027.3 0.0
26/06:30am 8.7 4.1 5.8 82 1.3 ENE 19 22 10 12 1027.0 1027.0 0.0
26/06:00am 8.7 4.1 5.6 81 1.4 ENE 19 24 10 13 1026.8 1026.8 0.0
26/05:30am 8.7 4.5 5.8 82 1.3 NE 17 20 9 11 1027.0 1027.0 0.0
26/05:00am 8.4 4.9 5.5 82 1.3 NE 13 15 7 8 1027.1 1027.1 0.0
26/04:30am 8.6 4.4 5.5 81 1.4 NE 17 20 9 11 1027.1 1027.1 0.0
26/04:00am 8.6 4.0 5.4 80 1.4 NE 19 22 10 12 1027.1 1027.1 0.0
26/03:30am 8.7 4.4 5.4 80 1.5 NE 17 20 9 11 1027.2 1027.2 0.0
26/03:00am 8.1 5.3 5.0 81 1.4 NE 9 13 5 7 1027.5 1027.5 0.0
26/02:30am 8.0 5.5 4.9 81 1.4 NE 7 11 4 6 1027.6 1027.6 0.0
26/02:00am 8.4 5.2 5.2 80 1.4 NE 11 13 6 7 1027.8 1027.8 0.0
26/01:30am 8.7 5.2 5.4 80 1.5 NNE 13 17 7 9 1027.8 1027.8 0.0
26/01:00am 8.1 5.4 5.4 83 1.2 NE 9 13 5 7 1027.8 1027.8 0.0
26/12:30am 6.7 3.8 4.4 85 1.0 NE 9 13 5 7 1028.2 1028.2 0.0
26/12:00am 6.1 4.9 4.4 89 0.7 CALM 0 0 0 0 1028.7 1028.7 0.0
 
Date/Time
CST
Temp
°C
App
Temp
°C
Dew
Point
Rel
Hum
%
Delta-T
°C
Wind Press
QNH
hPa
Press
MSL
hPa
Rain
since 9 am
mm
Dir
 
Spd
km/h
Gust
km/h
Spd
kts
Gust
kts
25/11:30pm 9.0 5.7 6.3 83 1.2 NE 13 15 7 8 1028.5 1028.5 0.0
25/11:00pm 9.3 6.0 6.6 83 1.3 NE 13 17 7 9 1028.5 1028.5 0.0
25/10:30pm 9.0 5.7 6.3 83 1.2 NE 13 15 7 8 1028.5 1028.5 0.0
25/10:00pm 8.4 5.5 6.4 87 0.9 NE 11 13 6 7 1028.7 1028.7 0.0
25/09:30pm 8.3 5.4 6.3 87 0.9 NE 11 13 6 7 1028.6 1028.6 0.0
25/09:00pm 8.1 5.6 6.6 90 0.7 NE 9 11 5 6 1028.5 1028.5 0.0
25/08:30pm 7.8 6.5 6.1 89 0.8 NE 2 6 1 3 1028.4 1028.4 0.0
25/08:00pm 7.8 6.8 5.8 87 0.9 CALM 0 0 0 0 1028.5 1028.5 0.0
25/07:30pm 8.2 6.1 5.8 85 1.1 NE 6 6 3 3 1028.6 1028.6 0.0
25/07:00pm 9.4 7.3 6.7 83 1.3 E 7 7 4 4 1028.4 1028.4 0.0
25/06:30pm 9.7 7.5 6.4 80 1.5 E 7 9 4 5 1028.3 1028.3 0.0
25/06:00pm 10.0 9.3 6.9 81 1.5 CALM 0 0 0 0 1028.2 1028.2 0.0
25/05:30pm 11.7 11.1 7.2 74 2.2 CALM 0 0 0 0 1027.9 1027.9 0.0
25/05:00pm 15.1 14.4 6.9 58 4.0 CALM 0 0 0 0 1027.6 1027.6 0.0
25/04:30pm 16.5 14.5 7.2 54 4.6 NE 7 9 4 5 1027.3 1027.3 0.0
25/04:00pm 17.1 15.1 6.3 49 5.3 NNE 6 9 3 5 1027.3 1027.3 0.0
25/03:30pm 17.7 15.6 5.9 46 5.7 NNE 6 11 3 6 1027.3 1027.3 0.0
25/03:00pm 17.6 15.2 7.1 50 5.2 NE 9 15 5 8 1027.1 1027.1 0.0
25/02:30pm 17.8 15.3 6.7 48 5.5 NE 9 13 5 7 1027.3 1027.3 0.0
25/02:00pm 17.9 16.2 7.6 51 5.2 NNE 6 13 3 7 1027.5 1027.5 0.0
25/01:30pm 17.5 15.2 7.5 52 5.0 N 9 13 5 7 1027.8 1027.8 0.0
25/01:00pm 17.0 14.6 7.1 52 4.9 N 9 17 5 9 1028.0 1028.0 0.0
25/12:30pm 16.8 14.8 8.8 59 4.1 NNE 9 15 5 8 1028.4 1028.4 0.0
25/12:00pm 16.4 14.2 7.9 57 4.3 NNE 9 17 5 9 1028.8 1028.8 0.0
25/11:30am 16.1 14.3 8.1 59 4.0 NE 7 13 4 7 1029.2 1029.2 0.0
25/11:00am 15.7 14.1 8.2 61 3.8 N 6 9 3 5 1029.8 1029.8 0.0
25/10:30am 14.1 11.8 7.6 65 3.2 N 9 11 5 6 1030.5 1030.5 0.0
25/10:00am 12.9 9.9 7.8 71 2.5 NNE 13 15 7 8 1030.5 1030.5 0.0
25/09:30am 12.0 8.1 6.9 71 2.4 NNE 17 20 9 11 1030.3 1030.3 0.0
25/09:00am 11.1 8.0 7.4 78 1.8 NNE 13 19 7 10 1030.2 1030.2 0.0
25/08:30am 9.2 5.5 6.1 81 1.4 NNE 15 19 8 10 1030.2 1030.2 0.0
25/08:00am 9.2 5.9 6.3 82 1.3 NE 13 17 7 9 1030.0 1030.0 0.0
25/07:30am 8.7 5.3 5.8 82 1.3 NE 13 17 7 9 1029.9 1029.9 0.0
25/07:00am 8.6 5.2 5.9 83 1.2 NE 13 15 7 8 1029.9 1029.9 0.0
25/06:30am 8.1 5.4 5.4 83 1.2 ENE 9 11 5 6 1029.6 1029.6 0.0
25/06:00am 8.2 5.1 5.5 83 1.2 NE 11 13 6 7 1029.5 1029.5 0.0
25/05:30am 8.2 4.7 5.5 83 1.2 NE 13 17 7 9 1029.3 1029.3 0.0
25/05:00am 8.3 6.1 6.1 86 1.0 NE 7 11 4 6 1029.4 1029.4 0.0
25/04:30am 7.8 6.9 5.9 88 0.9 CALM 0 0 0 0 1029.5 1029.5 0.0
25/04:00am 8.1 7.1 5.7 85 1.1 CALM 0 0 0 0 1029.2 1029.2 0.0
25/03:30am 8.5 6.3 6.0 84 1.1 NE 7 11 4 6 1029.3 1029.3 0.0
25/03:00am 9.1 6.9 6.0 81 1.4 NNE 7 9 4 5 1029.1 1029.1 0.0
25/02:30am 8.8 6.1 5.7 81 1.4 NNE 9 11 5 6 1029.2 1029.2 0.0
25/02:00am 8.5 7.2 5.8 83 1.2 E 2 7 1 4 1029.0 1029.0 0.0
25/01:30am 8.3 5.7 6.3 87 0.9 NE 9 11 5 6 1028.9 1028.9 0.0
25/01:00am 9.3 6.3 6.0 80 1.5 NNE 11 13 6 7 1028.6 1028.6 0.0
25/12:30am 8.6 5.6 6.1 84 1.1 NE 11 15 6 8 1028.6 1028.6 0.0
25/12:00am 9.1 6.1 6.2 82 1.3 NE 11 13 6 7 1029.1 1029.1 0.0
 
Date/Time
CST
Temp
°C
App
Temp
°C
Dew
Point
Rel
Hum
%
Delta-T
°C
Wind Press
QNH
hPa
Press
MSL
hPa
Rain
since 9 am
mm
Dir
 
Spd
km/h
Gust
km/h
Spd
kts
Gust
kts
24/11:30pm 9.4 6.1 6.3 81 1.4 NE 13 17 7 9 1029.2 1029.2 0.0
24/11:00pm 9.9 6.9 6.1 77 1.8 NNE 11 15 6 8 1029.3 1029.3 0.0
24/10:30pm 10.0 7.0 6.0 76 1.8 NNE 11 13 6 7 1029.3 1029.3 0.0
24/10:00pm 9.9 6.9 6.1 77 1.8 NNE 11 13 6 7 1029.5 1029.5 0.0
24/09:30pm 9.7 6.7 6.2 79 1.6 NNE 11 13 6 7 1029.7 1029.7 0.0
24/09:00pm 10.1 7.5 6.3 77 1.8 NNE 9 11 5 6 1029.9 1029.9 0.0
24/08:30pm 10.3 7.7 6.3 76 1.9 NNE 9 11 5 6 1029.6 1029.6 0.0
24/08:00pm 10.4 8.0 6.9 79 1.7 NNE 9 11 5 6 1029.5 1029.5 0.0
24/07:30pm 9.5 7.1 6.9 84 1.2 NNE 9 11 5 6 1029.4 1029.4 0.0
24/07:00pm 9.0 6.8 6.3 83 1.2 NE 7 9 4 5 1029.3 1029.3 0.0
24/06:30pm 10.5 8.7 7.0 79 1.6 NE 6 7 3 4 1029.3 1029.3 0.0
24/06:00pm 10.5 8.0 6.6 77 1.8 ENE 9 9 5 5 1029.1 1029.1 0.0
24/05:30pm 10.2 7.9 7.3 82 1.4 ENE 9 11 5 6 1028.7 1028.7 0.0
24/05:00pm 10.6 8.4 7.8 83 1.4 ENE 9 11 5 6 1028.6 1028.6 0.0
24/04:30pm 12.7 11.9 6.5 66 2.9 CALM 0 0 0 0 1028.6 1028.6 0.0
24/04:00pm 13.4 11.6 7.0 65 3.1 NE 6 9 3 5 1028.5 1028.5 0.0
24/03:30pm 13.9 11.5 7.0 63 3.3 NE 9 13 5 7 1028.5 1028.5 0.0
24/03:00pm 14.1 10.4 6.5 60 3.6 NNE 15 19 8 10 1028.4 1028.4 0.0
24/02:30pm 14.0 11.3 7.3 64 3.3 N 11 15 6 8 1028.5 1028.5 0.0
24/02:00pm 13.8 10.7 7.3 65 3.2 N 13 17 7 9 1028.6 1028.6 0.0
24/01:30pm 13.8 10.9 8.0 68 2.9 NNE 13 19 7 10 1028.5 1028.5 0.0
24/01:00pm 12.8 9.7 7.3 69 2.7 N 13 19 7 10 1028.9 1028.9 0.0
24/12:30pm 12.2 9.1 7.1 71 2.4 N 13 17 7 9 1029.3 1029.3 0.0
24/12:00pm 11.8 9.0 6.9 72 2.3 N 11 17 6 9 1029.6 1029.6 0.0
24/11:30am 11.7 9.3 7.0 73 2.2 N 9 15 5 8 1030.1 1030.1 0.0
24/11:00am 11.0 7.8 6.9 76 1.9 N 13 17 7 9 1030.5 1030.5 0.0
24/10:30am 10.2 6.6 6.7 79 1.6 NNE 15 19 8 10 1030.5 1030.5 0.0
24/10:00am 8.8 5.9 6.6 86 1.0 NNE 11 15 6 8 1030.4 1030.4 0.0
24/09:30am 8.3 4.6 6.3 87 0.9 NE 15 19 8 10 1030.2 1030.2 0.0
24/09:00am 7.2 3.3 5.3 88 0.8 NE 15 19 8 10 1030.3 1030.3 0.0
24/08:30am 5.9 1.9 4.7 92 0.5 NE 15 19 8 10 1030.4 1030.4 0.0
24/08:00am 5.3 0.9 4.6 95 0.3 NE 17 20 9 11 1030.1 1030.1 0.0
24/07:30am 4.7 0.2 4.0 95 0.3 NE 17 22 9 12 1029.8 1029.8 0.0
24/07:00am 4.7 0.6 4.1 96 0.3 NE 15 17 8 9 1029.7 1029.7 0.0
24/06:30am 4.6 0.5 4.2 97 0.2 NE 15 17 8 9 1029.7 1029.7 0.0
24/06:00am 4.9 1.2 4.6 98 0.1 NNE 13 17 7 9 1029.5 1029.5 0.0
24/05:30am 4.3 1.3 4.0 98 0.1 NE 9 11 5 6 1029.4 1029.4 0.0
24/05:00am 2.9 0.0 2.8 99 0.0 N 7 9 4 5 1029.4 1029.4 0.0
24/04:30am 1.2 -0.6 1.1 99 0.0 CALM 0 0 0 0 1029.3 1029.3 0.0
24/04:00am 0.9 -1.0 0.8 99 0.0 CALM 0 0 0 0 1029.3 1029.3 0.0
24/03:30am 2.1 0.4 2.0 99 0.0 CALM 0 0 0 0 1029.1 1029.1 0.0
24/03:00am 1.6 -0.2 1.3 98 0.1 CALM 0 0 0 0 1028.9 1028.9 0.0
24/02:30am 3.0 0.1 2.7 98 0.1 NE 7 11 4 6 1029.2 1029.2 0.0
24/02:00am 2.1 -1.3 1.8 98 0.1 ENE 9 13 5 7 1029.3 1029.3 0.0
24/01:30am 2.0 -0.5 1.7 98 0.1 WNW 4 9 2 5 1029.6 1029.6 0.0
24/01:00am 3.9 2.1 3.6 98 0.1 E 2 6 1 3 1029.3 1029.3 0.0
24/12:30am 2.8 1.2 2.5 98 0.1 CALM 0 0 0 0 1029.5 1029.5 0.0
24/12:00am 2.4 0.7 2.1 98 0.1 CALM 0 0 0 0 1029.8 1029.8 0.0
 
Date/Time
CST
Temp
°C
App
Temp
°C
Dew
Point
Rel
Hum
%
Delta-T
°C
Wind Press
QNH
hPa
Press
MSL
hPa
Rain
since 9 am
mm
Dir
 
Spd
km/h
Gust
km/h
Spd
kts
Gust
kts
23/11:30pm 2.5 0.8 2.1 97 0.2 CALM 0 0 0 0 1030.1 1030.1 0.0
23/11:00pm 3.1 1.5 2.5 96 0.2 CALM 0 0 0 0 1030.2 1030.2 0.0
23/10:30pm 3.6 2.1 3.0 96 0.2 CALM 0 0 0 0 1030.1 1030.1 0.0
23/10:00pm 4.0 2.6 3.4 96 0.2 CALM 0 0 0 0 1030.2 1030.2 0.0
23/09:30pm 4.4 3.0 3.8 96 0.2 CALM 0 0 0 0 1030.3 1030.3 0.0
23/09:00pm 4.6 3.3 3.9 95 0.3 CALM 0 0 0 0 1030.4 1030.4 0.0
23/08:30pm 4.2 2.8 3.5 95 0.3 CALM 0 0 0 0 1030.3 1030.3 0.0
23/08:00pm 5.1 3.5 4.4 95 0.3 NNE 2 6 1 3 1030.4 1030.4 0.0
23/07:30pm 5.7 4.5 4.7 93 0.4 CALM 0 0 0 0 1030.5 1030.5 0.0
23/07:00pm 5.7 4.5 4.5 92 0.5 CALM 0 0 0 0 1030.5 1030.5 0.0
23/06:30pm 6.4 4.9 4.9 90 0.6 NNW 2 6 1 3 1030.5 1030.5 0.0
23/06:00pm 7.7 6.8 6.0 89 0.8 CALM 0 0 0 0 1030.5 1030.5 0.0
23/05:30pm 8.3 7.4 6.1 86 1.0 CALM 0 0 0 0 1030.4 1030.4 0.0
23/05:00pm 10.6 9.8 6.6 76 1.9 CALM 0 0 0 0 1030.3 1030.3 0.0
23/04:30pm 11.7 10.9 6.4 70 2.5 CALM 0 0 0 0 1030.3 1030.3 0.0
23/04:00pm 12.3 10.5 7.0 70 2.6 WSW 6 9 3 5 1030.4 1030.4 0.0
23/03:30pm 12.7 11.0 6.1 64 3.1 NW 4 7 2 4 1030.4 1030.4 0.0

Other Formats:

Comma delimited format used in spreadsheet applications
http://www.bom.gov.au/fwo/IDS60801/IDS60801.94820.axf

JavaScript Object Notation format (JSON) in row-major order
http://www.bom.gov.au/fwo/IDS60801/IDS60801.94820.json